Time;durP1;ratioP1;P1;durP2;ratioP2;P2;SDS_P1;SDS_P2;PMS_P1;PMS_P2;Temp;Humidity;BMP_temperature;BMP_pressure;BME280_temperature;BME280_humidity;BME280_pressure;Samples;Min_cycle;Max_cycle;Signal;HPM_P1;HPM_P2
2021/07/08 00:02:20;;;;;;;3.17;0.70;;;17.10;99.90;;;;;;4978579;28;20046;-87
2021/07/08 00:04:46;;;;;;;9.02;1.00;;;17.10;99.90;;;;;;4978640;28;20022;-87
2021/07/08 00:07:11;;;;;;;3.25;0.75;;;17.10;99.90;;;;;;4978563;28;20026;-87
2021/07/08 00:09:38;;;;;;;1.80;0.73;;;17.20;99.90;;;;;;4978631;28;20034;-87
2021/07/08 00:12:06;;;;;;;3.05;0.85;;;17.10;99.90;;;;;;4978455;28;20030;-87
2021/07/08 00:14:32;;;;;;;4.68;0.82;;;17.10;99.90;;;;;;4978446;28;20445;-87
2021/07/08 00:16:58;;;;;;;4.88;0.80;;;17.00;99.90;;;;;;4978451;28;20470;-87
2021/07/08 00:19:24;;;;;;;3.53;0.90;;;17.10;99.90;;;;;;4978484;28;20081;-86
2021/07/08 00:21:49;;;;;;;3.42;0.80;;;17.10;99.90;;;;;;4995826;28;20054;-87
2021/07/08 00:24:15;;;;;;;8.65;0.90;;;17.10;99.90;;;;;;4980528;28;20033;-87
2021/07/08 00:26:41;;;;;;;3.00;0.80;;;17.00;99.90;;;;;;4986834;28;20034;-87
2021/07/08 00:29:07;;;;;;;2.95;0.80;;;17.10;99.90;;;;;;4982998;28;20022;-86
2021/07/08 00:31:33;;;;;;;1.13;0.60;;;17.30;99.90;;;;;;4978802;28;20375;-87
2021/07/08 00:34:01;;;;;;;3.85;0.80;;;17.20;99.90;;;;;;4978547;28;20126;-87
2021/07/08 00:36:28;;;;;;;7.28;0.82;;;17.00;99.90;;;;;;4995616;28;20378;-87
2021/07/08 00:38:55;;;;;;;3.30;0.80;;;16.90;99.90;;;;;;4995448;28;20029;-87
2021/07/08 00:41:21;;;;;;;2.40;0.60;;;16.90;99.90;;;;;;4977913;28;20041;-87
2021/07/08 00:43:51;;;;;;;2.05;0.65;;;16.90;99.90;;;;;;4977962;28;20035;-87
2021/07/08 00:46:17;;;;;;;9.48;1.00;;;17.00;99.90;;;;;;4996171;28;20022;-87
2021/07/08 00:48:43;;;;;;;6.20;1.00;;;17.10;99.90;;;;;;4978833;28;20117;-87
2021/07/08 00:51:08;;;;;;;6.80;1.13;;;16.90;99.90;;;;;;4977667;28;20550;-87
2021/07/08 00:53:34;;;;;;;6.47;0.85;;;16.80;99.90;;;;;;4977708;28;20046;-87
2021/07/08 00:56:03;;;;;;;6.28;0.90;;;16.80;99.90;;;;;;4977719;28;20376;-87
2021/07/08 00:58:29;;;;;;;4.90;0.90;;;16.80;99.90;;;;;;4977844;28;20113;-87
2021/07/08 01:00:55;;;;;;;2.47;0.63;;;16.80;99.90;;;;;;4977282;28;20084;-88
2021/07/08 01:03:22;;;;;;;7.88;0.82;;;16.70;99.90;;;;;;4977599;28;20037;-87
2021/07/08 01:05:50;;;;;;;9.32;1.25;;;16.80;99.90;;;;;;4977523;28;20033;-87
2021/07/08 01:08:17;;;;;;;5.07;0.90;;;16.80;99.90;;;;;;4977445;28;20045;-87
2021/07/08 01:10:45;;;;;;;6.28;0.82;;;16.70;99.90;;;;;;4977392;28;20076;-87
2021/07/08 01:13:14;;;;;;;7.40;0.70;;;16.80;99.90;;;;;;4994774;28;20022;-87
2021/07/08 01:15:40;;;;;;;6.40;1.10;;;16.80;99.90;;;;;;4977368;28;20514;-87
2021/07/08 01:18:06;;;;;;;5.90;0.77;;;16.90;99.90;;;;;;4977293;28;20022;-87
2021/07/08 01:20:33;;;;;;;3.22;0.60;;;17.00;99.90;;;;;;4977202;28;20509;-87
2021/07/08 01:23:00;;;;;;;1.92;0.88;;;17.10;99.90;;;;;;4977672;28;20065;-87
2021/07/08 01:25:35;;;;;;;4.32;0.70;;;17.10;99.90;;;;;;4977224;28;20052;-87
2021/07/08 01:28:03;;;;;;;3.97;0.60;;;17.00;99.90;;;;;;4977276;28;20026;-87
2021/07/08 01:30:29;;;;;;;8.90;0.93;;;17.10;99.90;;;;;;4977019;28;20026;-87
2021/07/08 01:32:56;;;;;;;4.05;0.80;;;17.10;99.90;;;;;;4977079;28;20030;-87
2021/07/08 01:35:22;;;;;;;2.22;0.70;;;17.00;99.90;;;;;;4977000;28;20030;-87
2021/07/08 01:37:48;;;;;;;1.67;0.63;;;17.00;99.90;;;;;;4977005;28;20022;-87
2021/07/08 01:40:16;;;;;;;5.03;0.82;;;17.00;99.90;;;;;;4976949;28;20540;-87
2021/07/08 01:42:42;;;;;;;2.15;0.70;;;17.00;99.90;;;;;;4976880;28;20409;-87
2021/07/08 01:45:08;;;;;;;4.65;0.73;;;17.00;99.90;;;;;;4976858;28;20030;-87
2021/07/08 01:47:34;;;;;;;3.42;0.80;;;17.10;99.90;;;;;;4977048;28;20023;-87
2021/07/08 01:50:00;;;;;;;3.42;1.08;;;17.00;99.90;;;;;;4976794;28;20105;-87
2021/07/08 01:52:26;;;;;;;4.85;0.90;;;16.80;99.90;;;;;;4976667;28;20034;-87
2021/07/08 01:54:52;;;;;;;6.68;1.10;;;16.90;99.90;;;;;;4976674;28;20026;-87
2021/07/08 01:57:18;;;;;;;3.25;0.80;;;16.80;99.90;;;;;;4976786;28;20068;-87
2021/07/08 01:59:44;;;;;;;3.22;0.68;;;16.80;99.90;;;;;;4976607;28;20022;-87
2021/07/08 02:02:09;;;;;;;3.20;0.55;;;16.70;99.90;;;;;;4976516;28;20548;-88
2021/07/08 02:07:57;;;;;;;3.88;0.85;;;16.80;99.90;;;;;;4994277;28;20073;-87
2021/07/08 02:10:23;;;;;;;6.80;0.80;;;16.70;99.90;;;;;;4976518;28;20027;-87
2021/07/08 02:12:49;;;;;;;1.42;0.60;;;16.70;99.90;;;;;;4976506;28;20375;-86
2021/07/08 02:15:15;;;;;;;1.88;0.70;;;16.60;99.90;;;;;;4976473;28;20050;-87
2021/07/08 02:17:41;;;;;;;2.95;0.93;;;16.80;99.90;;;;;;4993903;28;20057;-87
2021/07/08 02:20:10;;;;;;;7.25;0.82;;;16.90;99.90;;;;;;4976419;28;20509;-87
2021/07/08 02:22:36;;;;;;;2.65;1.00;;;16.80;99.90;;;;;;4979954;28;20434;-87
2021/07/08 02:25:04;;;;;;;2.28;0.90;;;16.90;99.90;;;;;;4980452;28;20077;-87
2021/07/08 02:27:30;;;;;;;2.92;0.88;;;16.90;99.90;;;;;;4980359;28;20018;-87
2021/07/08 02:29:55;;;;;;;5.47;0.80;;;17.00;99.90;;;;;;4980288;28;20072;-87
2021/07/08 02:32:21;;;;;;;4.68;0.80;;;17.20;99.90;;;;;;4980245;28;20026;-87
2021/07/08 02:34:50;;;;;;;6.57;0.98;;;17.20;99.90;;;;;;4997758;28;20022;-87
2021/07/08 02:37:16;;;;;;;5.72;0.82;;;17.10;99.90;;;;;;4980298;28;20026;-87
2021/07/08 02:39:42;;;;;;;4.22;1.02;;;17.00;99.90;;;;;;5003871;28;20018;-87
2021/07/08 02:42:07;;;;;;;13.30;1.00;;;17.00;99.90;;;;;;4991498;28;20026;-86
2021/07/08 02:44:34;;;;;;;5.35;0.80;;;16.90;99.90;;;;;;4984367;28;20058;-87
2021/07/08 02:47:01;;;;;;;5.90;0.65;;;16.90;99.90;;;;;;4980739;28;20061;-87
2021/07/08 02:49:27;;;;;;;2.25;0.80;;;16.70;99.90;;;;;;4998225;28;20081;-87
2021/07/08 02:51:53;;;;;;;4.25;0.80;;;16.80;99.90;;;;;;4980129;28;20029;-87
2021/07/08 02:54:19;;;;;;;2.95;0.85;;;16.80;99.90;;;;;;4980084;28;20027;-88
2021/07/08 02:56:45;;;;;;;5.38;0.80;;;16.80;99.90;;;;;;4980911;28;20042;-87
2021/07/08 02:59:10;;;;;;;6.53;0.82;;;16.80;99.90;;;;;;4980065;28;20113;-86
2021/07/08 03:01:36;;;;;;;7.85;0.80;;;16.90;99.90;;;;;;4982126;28;20068;-86
2021/07/08 03:04:05;;;;;;;3.80;0.80;;;16.90;99.90;;;;;;4979810;28;20465;-86
2021/07/08 03:06:34;;;;;;;6.28;1.35;;;16.70;99.90;;;;;;4980099;28;20050;-86
2021/07/08 03:09:00;;;;;;;3.70;1.17;;;16.70;99.90;;;;;;4979583;28;20026;-86
2021/07/08 03:11:26;;;;;;;8.65;1.58;;;16.70;99.90;;;;;;4979579;28;20026;-86
2021/07/08 03:13:52;;;;;;;10.10;1.48;;;16.80;99.90;;;;;;4979544;28;20105;-86
2021/07/08 03:16:17;;;;;;;5.35;1.00;;;16.70;99.90;;;;;;4979507;28;20077;-86
2021/07/08 03:18:43;;;;;;;8.48;1.02;;;16.70;99.90;;;;;;4979464;28;20109;-86
2021/07/08 03:21:09;;;;;;;5.88;0.95;;;16.70;99.90;;;;;;4997239;28;20069;-86
2021/07/08 03:23:35;;;;;;;9.52;1.13;;;16.60;99.90;;;;;;4979349;28;20437;-87
2021/07/08 03:26:02;;;;;;;3.88;0.90;;;16.50;99.90;;;;;;4979323;28;20037;-86
2021/07/08 03:28:28;;;;;;;4.35;0.95;;;16.50;99.90;;;;;;4996768;28;20076;-86
2021/07/08 03:30:54;;;;;;;4.97;0.80;;;16.60;99.90;;;;;;4979207;28;20473;-86
2021/07/08 03:33:20;;;;;;;4.90;0.90;;;16.50;99.90;;;;;;4979087;28;20030;-86
2021/07/08 03:35:45;;;;;;;8.30;1.17;;;16.40;99.90;;;;;;4979129;28;20406;-86
2021/07/08 03:38:11;;;;;;;4.25;1.00;;;16.40;99.90;;;;;;4996882;28;20018;-86
2021/07/08 03:40:37;;;;;;;12.65;1.00;;;16.50;99.90;;;;;;4979164;28;20026;-86
2021/07/08 03:43:04;;;;;;;6.90;1.20;;;16.60;99.90;;;;;;4979033;28;20489;-86
2021/07/08 03:45:30;;;;;;;2.88;0.90;;;16.60;99.90;;;;;;4978938;28;20065;-86
2021/07/08 03:47:56;;;;;;;5.97;1.15;;;16.60;99.90;;;;;;4978997;28;20026;-86
2021/07/08 03:50:22;;;;;;;9.40;1.17;;;16.70;99.90;;;;;;4978814;28;20023;-86
2021/07/08 03:52:49;;;;;;;3.70;0.80;;;16.70;99.90;;;;;;4979408;28;20552;-86
2021/07/08 03:55:17;;;;;;;2.15;0.98;;;16.90;99.90;;;;;;4978997;28;20028;-86
2021/07/08 03:57:52;;;;;;;4.00;0.93;;;16.80;99.90;;;;;;4978929;28;20057;-86
2021/07/08 04:00:33;;;;;;;5.60;0.60;;;16.80;99.90;;;;;;4978727;28;20027;-86
2021/07/08 04:03:16;;;;;;;8.50;1.00;;;16.80;99.90;;;;;;4959455;28;20039;-86
2021/07/08 04:05:45;;;;;;;5.25;1.00;;;16.60;99.90;;;;;;4959456;28;20030;-86
2021/07/08 04:08:11;;;;;;;6.75;1.00;;;16.60;99.90;;;;;;4959174;28;20118;-86
2021/07/08 04:10:39;;;;;;;5.78;1.15;;;16.60;99.90;;;;;;4959068;28;20027;-86
2021/07/08 04:13:08;;;;;;;3.22;0.77;;;16.70;99.90;;;;;;4959106;28;20023;-86
2021/07/08 04:15:34;;;;;;;10.27;0.85;;;16.70;99.90;;;;;;4959889;28;20426;-86
2021/07/08 04:18:02;;;;;;;6.78;0.95;;;16.60;99.90;;;;;;4959084;28;20046;-85
2021/07/08 04:20:28;;;;;;;2.78;0.60;;;16.60;99.90;;;;;;4976605;28;20102;-86
2021/07/08 04:22:54;;;;;;;4.30;0.85;;;16.80;99.90;;;;;;4976288;28;20073;-85
2021/07/08 04:25:20;;;;;;;3.00;0.75;;;16.80;99.90;;;;;;4958886;28;20486;-86
2021/07/08 04:27:46;;;;;;;2.97;1.13;;;16.80;99.90;;;;;;4958911;28;20031;-86
2021/07/08 04:30:16;;;;;;;6.22;1.10;;;16.60;99.90;;;;;;4958827;28;20023;-85
2021/07/08 04:32:42;;;;;;;2.63;0.90;;;16.60;99.90;;;;;;4976099;28;20498;-85
2021/07/08 04:35:10;;;;;;;5.13;1.73;;;16.60;99.90;;;;;;4958690;28;20043;-85
2021/07/08 04:37:41;;;;;;;10.48;1.30;;;16.70;99.90;;;;;;4976027;28;20526;-85
2021/07/08 04:40:15;;;;;;;4.50;1.23;;;16.70;99.90;;;;;;4976011;28;20478;-85
2021/07/08 04:42:41;;;;;;;6.25;1.50;;;16.70;99.90;;;;;;4958607;28;20023;-86
2021/07/08 04:45:09;;;;;;;7.20;1.40;;;16.70;99.90;;;;;;4957980;28;20034;-86
2021/07/08 04:47:37;;;;;;;10.43;1.30;;;16.60;99.90;;;;;;4958428;28;20455;-85
2021/07/08 04:50:04;;;;;;;7.55;1.30;;;16.60;99.90;;;;;;4958426;28;20027;-86
2021/07/08 04:52:31;;;;;;;14.10;1.67;;;16.60;99.90;;;;;;4958805;28;20475;-86
2021/07/08 04:54:57;;;;;;;6.90;1.08;;;16.60;99.90;;;;;;4959630;28;20094;-86
2021/07/08 04:57:23;;;;;;;4.88;1.30;;;16.70;99.90;;;;;;4959733;28;20065;-86
2021/07/08 04:59:48;;;;;;;5.15;1.05;;;16.80;99.90;;;;;;4958567;28;20118;-86
2021/07/08 05:02:14;;;;;;;4.00;1.27;;;17.00;99.90;;;;;;4989579;28;20417;-86
2021/07/08 05:04:41;;;;;;;4.32;1.27;;;17.20;99.90;;;;;;4977478;28;20033;-85
2021/07/08 05:07:06;;;;;;;3.65;1.20;;;17.10;99.90;;;;;;4977521;28;20030;-85
2021/07/08 05:09:32;;;;;;;4.95;1.08;;;17.10;99.90;;;;;;4977478;28;20137;-85
2021/07/08 05:11:58;;;;;;;4.20;1.30;;;17.20;99.90;;;;;;4977390;28;20088;-85
2021/07/08 05:14:24;;;;;;;6.25;1.27;;;17.20;99.90;;;;;;4977706;28;20113;-85
2021/07/08 05:16:49;;;;;;;8.52;1.08;;;17.20;99.90;;;;;;4977292;28;20027;-86
2021/07/08 05:19:15;;;;;;;2.97;0.88;;;17.20;99.90;;;;;;4977535;28;20050;-86
2021/07/08 05:21:47;;;;;;;7.05;1.10;;;17.20;99.90;;;;;;4977229;28;20109;-85
2021/07/08 05:24:18;;;;;;;4.13;0.82;;;17.20;99.90;;;;;;4977231;28;20027;-86
2021/07/08 05:26:44;;;;;;;3.63;1.15;;;17.20;99.90;;;;;;4977115;28;20034;-86
2021/07/08 05:29:10;;;;;;;5.97;1.00;;;17.20;99.90;;;;;;4976997;28;20026;-86
2021/07/08 05:31:36;;;;;;;6.47;1.00;;;17.20;99.90;;;;;;4977018;28;20434;-86
2021/07/08 05:34:02;;;;;;;1.85;0.80;;;17.20;99.90;;;;;;4994743;28;20101;-86
2021/07/08 05:36:27;;;;;;;9.43;1.25;;;17.20;99.90;;;;;;4994360;28;20023;-86
2021/07/08 05:38:53;;;;;;;3.13;1.00;;;17.20;99.90;;;;;;4976970;28;20030;-86
2021/07/08 05:41:18;;;;;;;2.40;1.10;;;17.30;99.90;;;;;;4976853;28;20032;-86
2021/07/08 05:43:44;;;;;;;5.65;0.98;;;17.30;99.90;;;;;;4976880;28;20033;-86
2021/07/08 05:46:10;;;;;;;3.30;0.90;;;17.40;99.90;;;;;;4994498;28;20105;-86
2021/07/08 05:48:35;;;;;;;7.78;0.85;;;17.50;99.90;;;;;;4977045;28;20037;-86
2021/07/08 05:51:01;;;;;;;9.05;1.40;;;17.50;99.90;;;;;;4976698;28;20027;-86
2021/07/08 05:53:27;;;;;;;9.38;1.10;;;17.50;99.90;;;;;;4976693;28;20032;-86
2021/07/08 05:55:52;;;;;;;4.85;0.80;;;17.40;99.90;;;;;;4975974;28;20363;-86
2021/07/08 05:58:18;;;;;;;4.22;1.00;;;17.40;99.90;;;;;;4976651;28;20030;-86
2021/07/08 06:00:47;;;;;;;4.30;0.85;;;17.50;99.90;;;;;;4993921;28;20524;-86
2021/07/08 06:03:16;;;;;;;6.63;1.15;;;17.50;99.90;;;;;;4976640;28;20037;-86
2021/07/08 06:05:43;;;;;;;5.90;0.82;;;17.60;99.90;;;;;;4976484;28;20023;-86
2021/07/08 06:08:08;;;;;;;6.53;1.00;;;17.50;99.90;;;;;;4976497;28;20026;-86
2021/07/08 06:10:35;;;;;;;2.50;0.98;;;17.40;99.90;;;;;;4976445;28;20041;-86
2021/07/08 06:13:01;;;;;;;5.95;0.93;;;17.40;99.90;;;;;;4976509;28;20033;-86
2021/07/08 06:15:28;;;;;;;3.10;0.80;;;17.40;99.90;;;;;;4993800;28;20032;-86
2021/07/08 06:17:53;;;;;;;6.55;1.00;;;17.40;99.90;;;;;;4976426;28;20026;-86
2021/07/08 06:20:19;;;;;;;6.68;0.95;;;17.40;99.90;;;;;;4993805;28;20028;-86
2021/07/08 06:22:45;;;;;;;5.53;1.10;;;17.30;99.90;;;;;;4976440;28;20477;-86
2021/07/08 06:25:12;;;;;;;9.70;1.58;;;17.40;99.90;;;;;;4976377;28;20113;-87
2021/07/08 06:31:00;;;;;;;4.95;1.20;;;17.50;99.90;;;;;;4993961;28;20042;-86
2021/07/08 06:33:26;;;;;;;2.90;1.13;;;17.40;99.90;;;;;;4976179;28;20072;-86
2021/07/08 06:35:52;;;;;;;8.95;1.33;;;17.30;99.90;;;;;;4976245;28;20398;-87
2021/07/08 06:38:17;;;;;;;5.40;1.10;;;17.20;99.90;;;;;;4976289;28;20027;-86
2021/07/08 06:40:43;;;;;;;5.22;1.17;;;17.20;99.90;;;;;;4976453;28;20023;-86
2021/07/08 06:43:09;;;;;;;3.88;1.08;;;17.40;99.90;;;;;;4976162;28;20084;-86
2021/07/08 06:45:36;;;;;;;4.45;0.80;;;17.50;99.90;;;;;;4976098;28;20030;-86
2021/07/08 06:48:03;;;;;;;7.47;1.83;;;17.60;99.90;;;;;;4993564;28;20077;-86
2021/07/08 06:50:30;;;;;;;7.90;1.60;;;17.60;99.90;;;;;;4976112;28;20026;-86
2021/07/08 06:52:56;;;;;;;8.88;1.65;;;17.70;99.90;;;;;;4976257;28;20114;-86
2021/07/08 06:55:22;;;;;;;5.57;1.70;;;17.70;99.90;;;;;;4976082;28;20023;-86
2021/07/08 06:57:50;;;;;;;8.10;1.20;;;17.70;99.90;;;;;;4976112;28;20093;-86
2021/07/08 07:00:30;;;;;;;6.55;1.27;;;17.70;99.90;;;;;;4993508;28;20389;-86
2021/07/08 07:02:58;;;;;;;11.07;1.67;;;17.70;99.90;;;;;;4956958;28;20131;-86
2021/07/08 07:05:24;;;;;;;5.30;1.38;;;17.80;99.90;;;;;;4957074;28;20027;-86
2021/07/08 07:07:51;;;;;;;3.30;1.30;;;17.90;99.90;;;;;;4976136;28;20037;-86
2021/07/08 07:10:17;;;;;;;3.53;1.10;;;18.00;99.90;;;;;;4960339;28;20371;-86
2021/07/08 07:12:44;;;;;;;3.25;1.20;;;18.00;99.90;;;;;;4960142;28;20034;-85
2021/07/08 07:15:11;;;;;;;4.18;1.17;;;18.10;99.90;;;;;;4960223;28;20022;-86
2021/07/08 07:17:38;;;;;;;5.38;1.13;;;18.00;99.90;;;;;;4977483;28;20027;-86
2021/07/08 07:20:06;;;;;;;3.50;1.45;;;18.10;99.90;;;;;;4960087;28;20031;-85
2021/07/08 07:22:32;;;;;;;6.03;1.55;;;18.10;99.90;;;;;;4959984;28;20027;-86
2021/07/08 07:24:58;;;;;;;3.90;1.38;;;18.20;99.90;;;;;;4959953;28;20026;-86
2021/07/08 07:27:23;;;;;;;3.15;1.35;;;18.10;99.90;;;;;;4959960;28;20509;-86
2021/07/08 07:29:49;;;;;;;4.32;1.20;;;18.10;99.90;;;;;;4960017;28;20027;-85
2021/07/08 07:32:14;;;;;;;3.88;1.42;;;18.20;99.90;;;;;;4959831;28;20434;-85
2021/07/08 07:34:41;;;;;;;6.22;1.58;;;18.30;99.90;;;;;;4960155;28;20067;-85
2021/07/08 07:37:06;;;;;;;5.22;1.60;;;18.30;99.90;;;;;;4977173;28;20078;-85
2021/07/08 07:39:32;;;;;;;7.45;1.92;;;18.30;99.90;;;;;;4977308;28;20023;-85
2021/07/08 07:41:58;;;;;;;5.07;1.92;;;18.40;99.90;;;;;;4959724;28;20027;-85
2021/07/08 07:44:23;;;;;;;4.28;1.88;;;18.40;99.90;;;;;;4959680;28;20121;-85
2021/07/08 07:46:49;;;;;;;3.28;1.38;;;18.30;99.90;;;;;;4959521;28;20027;-86
2021/07/08 07:49:16;;;;;;;9.50;1.75;;;18.30;99.90;;;;;;4976885;28;20035;-85
2021/07/08 07:51:41;;;;;;;6.68;1.90;;;18.40;99.90;;;;;;4959445;28;20430;-85
2021/07/08 07:54:07;;;;;;;5.18;2.47;;;18.50;99.90;;;;;;4959800;28;20085;-85
2021/07/08 07:56:33;;;;;;;7.85;1.95;;;18.60;99.90;;;;;;4959455;28;20026;-85
2021/07/08 07:58:58;;;;;;;7.25;2.65;;;18.60;99.90;;;;;;4976748;28;20033;-85
2021/07/08 08:01:24;;;;;;;4.43;1.15;;;18.60;99.90;;;;;;4966380;28;20054;-85
2021/07/08 08:03:50;;;;;;;4.75;1.20;;;18.70;99.90;;;;;;4996414;28;20053;-85
2021/07/08 08:09:01;;;;;;;3.45;1.58;;;19.10;99.90;;;;;;4996398;28;20445;-85
2021/07/08 08:11:27;;;;;;;7.15;1.90;;;19.30;99.90;;;;;;4995960;28;20031;-85
2021/07/08 08:13:52;;;;;;;2.63;1.50;;;19.50;99.90;;;;;;4978416;28;20371;-86
2021/07/08 08:16:18;;;;;;;3.78;1.10;;;19.40;99.90;;;;;;4978383;28;20534;-85
2021/07/08 08:18:44;;;;;;;2.53;0.75;;;19.50;99.90;;;;;;4977413;28;20037;-86
2021/07/08 08:21:10;;;;;;;5.55;0.82;;;19.60;99.90;;;;;;4978265;28;20383;-86
2021/07/08 08:23:36;;;;;;;1.50;0.70;;;19.80;99.90;;;;;;4978173;28;20084;-85
2021/07/08 08:26:02;;;;;;;3.83;0.90;;;19.80;99.90;;;;;;4978256;28;20113;-86
2021/07/08 08:28:28;;;;;;;5.03;1.20;;;19.90;99.90;;;;;;4978227;28;20121;-86
2021/07/08 08:30:54;;;;;;;1.50;0.80;;;19.90;99.90;;;;;;4995613;28;20491;-86
2021/07/08 08:33:20;;;;;;;1.88;0.85;;;20.00;99.90;;;;;;4978183;28;20474;-86
2021/07/08 08:35:46;;;;;;;2.33;0.90;;;20.00;99.90;;;;;;4978059;28;20076;-85
2021/07/08 08:38:11;;;;;;;6.93;1.00;;;20.00;99.90;;;;;;4962246;28;20498;-86
2021/07/08 08:40:38;;;;;;;3.33;0.98;;;20.20;99.90;;;;;;4977934;28;20161;-86
2021/07/08 08:43:04;;;;;;;4.28;0.93;;;20.30;99.90;;;;;;4977888;28;20072;-86
2021/07/08 08:45:30;;;;;;;3.20;0.80;;;20.20;99.90;;;;;;4977883;28;20026;-85
2021/07/08 08:48:07;;;;;;;2.80;1.00;;;20.10;99.90;;;;;;4977853;28;20033;-85
2021/07/08 08:50:39;;;;;;;2.10;1.00;;;20.00;99.90;;;;;;4978014;28;20505;-86
2021/07/08 08:53:06;;;;;;;5.30;1.20;;;20.00;99.90;;;;;;4977778;28;20046;-86
2021/07/08 08:55:36;;;;;;;2.13;1.10;;;20.00;99.90;;;;;;4995193;28;20026;-85
2021/07/08 08:58:07;;;;;;;2.20;1.02;;;19.90;99.90;;;;;;4977746;28;20509;-85
2021/07/08 09:00:39;;;;;;;2.78;1.15;;;19.80;99.90;;;;;;4977661;28;20037;-86
2021/07/08 09:03:16;;;;;;;4.93;1.20;;;19.80;99.90;;;;;;4995258;28;20445;-85
2021/07/08 09:05:48;;;;;;;3.50;1.08;;;19.60;99.90;;;;;;4977872;28;20371;-85
2021/07/08 09:08:21;;;;;;;3.03;1.38;;;19.50;99.90;;;;;;4995036;28;20395;-84
2021/07/08 09:10:48;;;;;;;6.65;1.80;;;19.40;99.90;;;;;;4995186;28;20078;-85
2021/07/08 09:13:14;;;;;;;3.60;1.00;;;19.30;99.90;;;;;;4977347;28;20118;-85
2021/07/08 09:15:40;;;;;;;4.75;1.33;;;19.20;99.90;;;;;;4977338;28;20465;-85
2021/07/08 09:18:06;;;;;;;1.30;1.20;;;19.10;99.90;;;;;;4977295;28;20022;-85
2021/07/08 09:20:35;;;;;;;4.47;1.58;;;19.00;99.90;;;;;;4977557;28;20029;-85
2021/07/08 09:23:11;;;;;;;4.60;1.40;;;18.90;99.90;;;;;;4977257;28;20076;-86
2021/07/08 09:25:37;;;;;;;2.28;1.10;;;18.90;99.90;;;;;;4977108;28;20018;-85
2021/07/08 09:28:17;;;;;;;2.55;1.50;;;19.00;99.90;;;;;;4994534;28;20023;-85
2021/07/08 09:30:44;;;;;;;4.20;1.58;;;19.10;99.90;;;;;;4976893;28;20054;-85
2021/07/08 09:33:33;;;;;;;2.83;1.23;;;19.10;99.90;;;;;;4977102;28;20026;-85
2021/07/08 09:36:07;;;;;;;4.80;1.50;;;19.20;99.90;;;;;;4977546;28;20082;-85
2021/07/08 09:38:33;;;;;;;2.42;1.65;;;19.30;99.90;;;;;;4976915;28;20387;-85
2021/07/08 09:41:16;;;;;;;5.18;1.60;;;19.20;99.90;;;;;;4994199;28;20308;-85
2021/07/08 09:43:45;;;;;;;2.80;1.45;;;19.30;99.90;;;;;;4976844;28;20034;-85
2021/07/08 09:46:13;;;;;;;3.60;1.50;;;19.40;99.90;;;;;;4976770;28;20068;-85
2021/07/08 09:48:39;;;;;;;2.70;1.10;;;19.40;99.90;;;;;;4976788;28;20066;-85
2021/07/08 09:51:06;;;;;;;4.18;1.40;;;19.50;99.90;;;;;;4994064;28;20066;-85
2021/07/08 09:53:47;;;;;;;5.47;1.42;;;19.40;99.90;;;;;;4976655;28;20026;-86
2021/07/08 09:58:52;;;;;;;2.47;1.20;;;19.30;99.90;;;;;;4994099;28;20026;-85
2021/07/08 10:01:18;;;;;;;2.55;1.02;;;19.40;99.90;;;;;;4993798;28;20122;-85
2021/07/08 10:03:44;;;;;;;5.18;1.33;;;19.30;99.90;;;;;;4994047;28;20030;-85
2021/07/08 10:06:11;;;;;;;5.63;1.48;;;19.40;99.90;;;;;;4976475;28;20544;-86
2021/07/08 10:08:38;;;;;;;3.47;1.40;;;19.40;99.90;;;;;;4976645;28;20026;-86
2021/07/08 10:11:04;;;;;;;3.17;1.38;;;19.40;99.90;;;;;;4993914;28;20136;-86
2021/07/08 10:13:35;;;;;;;5.75;1.52;;;19.40;99.90;;;;;;4976429;28;20030;-85
2021/07/08 10:16:04;;;;;;;2.58;1.38;;;19.40;99.90;;;;;;4976490;28;20023;-85
2021/07/08 10:18:32;;;;;;;3.58;1.50;;;19.40;99.90;;;;;;4976411;28;20027;-86
2021/07/08 10:20:59;;;;;;;6.97;1.75;;;19.40;99.90;;;;;;4993838;28;20026;-85
2021/07/08 10:23:32;;;;;;;6.15;1.40;;;19.30;99.90;;;;;;4976403;28;20061;-86
2021/07/08 10:26:00;;;;;;;2.03;1.23;;;19.40;99.90;;;;;;4976407;28;20037;-85
2021/07/08 10:28:29;;;;;;;2.00;1.35;;;19.40;99.90;;;;;;4976378;28;20062;-86
2021/07/08 10:30:56;;;;;;;3.50;1.50;;;19.60;99.90;;;;;;4976239;28;20108;-86
2021/07/08 10:33:21;;;;;;;5.20;1.55;;;19.80;99.90;;;;;;4976336;28;20022;-86
2021/07/08 10:35:50;;;;;;;2.88;1.80;;;19.80;99.90;;;;;;4976311;28;20422;-85
2021/07/08 10:38:27;;;;;;;5.53;2.03;;;20.00;99.90;;;;;;4976223;28;20029;-86
2021/07/08 10:40:59;;;;;;;1.98;1.55;;;20.00;99.90;;;;;;4976310;28;20430;-86
2021/07/08 10:43:42;;;;;;;1.90;1.38;;;20.10;99.90;;;;;;4979242;28;20030;-86
2021/07/08 10:46:12;;;;;;;3.65;1.40;;;20.20;99.90;;;;;;4980093;28;20030;-86
2021/07/08 10:48:49;;;;;;;2.53;1.40;;;20.20;99.90;;;;;;4980281;28;20037;-86
2021/07/08 10:51:27;;;;;;;2.70;1.50;;;20.10;99.90;;;;;;4979848;28;20037;-86
2021/07/08 10:53:53;;;;;;;2.80;1.20;;;20.10;99.90;;;;;;4979985;28;20018;-85
2021/07/08 10:56:31;;;;;;;3.30;1.58;;;20.10;99.90;;;;;;4979936;28;20025;-86
2021/07/08 10:58:58;;;;;;;1.58;1.48;;;20.20;99.90;;;;;;4979963;28;20033;-86
2021/07/08 11:01:27;;;;;;;2.30;1.65;;;20.20;99.90;;;;;;4980128;28;20065;-86
2021/07/08 11:04:00;;;;;;;4.15;1.75;;;20.10;99.90;;;;;;4980070;28;20026;-86
2021/07/08 11:06:30;;;;;;;2.90;1.83;;;20.00;99.90;;;;;;4980371;28;20373;-86
2021/07/08 11:09:07;;;;;;;4.05;1.58;;;20.00;99.90;;;;;;4979685;28;20397;-86
2021/07/08 11:11:33;;;;;;;5.32;1.63;;;20.10;99.90;;;;;;4997113;28;20027;-86
2021/07/08 11:14:08;;;;;;;4.00;1.40;;;20.10;99.90;;;;;;4979658;28;20027;-86
2021/07/08 11:16:47;;;;;;;4.18;1.73;;;20.10;99.90;;;;;;4979509;28;20019;-85
2021/07/08 11:19:20;;;;;;;4.30;1.65;;;20.00;99.90;;;;;;4979537;28;20031;-86
2021/07/08 11:21:50;;;;;;;4.38;1.77;;;20.10;99.90;;;;;;4979485;28;20037;-85
2021/07/08 11:24:24;;;;;;;4.07;1.42;;;20.10;99.90;;;;;;4996873;28;20073;-86
2021/07/08 11:26:54;;;;;;;2.95;1.33;;;20.00;99.90;;;;;;4979444;28;20490;-85
2021/07/08 11:29:40;;;;;;;3.70;1.40;;;20.20;99.90;;;;;;4979353;28;20120;-84
2021/07/08 11:32:28;;;;;;;4.90;1.70;;;20.30;99.90;;;;;;4996965;28;20411;-83
2021/07/08 11:38:17;;;;;;;4.50;1.40;;;20.00;99.90;;;;;;4936860;29;20364;-83
2021/07/08 11:40:47;;;;;;;2.03;1.20;;;19.90;99.90;;;;;;4984915;28;20505;-83
2021/07/08 11:43:14;;;;;;;2.72;1.30;;;19.90;99.90;;;;;;4979006;28;20046;-83
2021/07/08 11:45:40;;;;;;;2.42;1.30;;;19.90;99.90;;;;;;4996741;28;20028;-83
2021/07/08 11:48:06;;;;;;;2.55;1.42;;;19.80;99.90;;;;;;4996439;28;20101;-83
2021/07/08 11:50:35;;;;;;;4.50;1.40;;;19.70;99.90;;;;;;4996408;28;20026;-83
2021/07/08 11:53:10;;;;;;;1.83;1.20;;;19.60;99.90;;;;;;4978230;28;20023;-83
2021/07/08 11:55:44;;;;;;;2.88;1.13;;;19.50;99.90;;;;;;4978381;28;20041;-83
2021/07/08 11:58:11;;;;;;;;;;;19.40;99.90;;;;;;4979247;28;20429;-83
2021/07/08 12:00:39;;;;;;;7.28;1.15;;;19.30;99.90;;;;;;4978687;28;19905;-83
2021/07/08 12:03:32;;;;;;;4.93;1.27;;;19.20;99.90;;;;;;4978620;28;20125;-83
2021/07/08 12:06:08;;;;;;;2.10;1.15;;;19.10;99.90;;;;;;4970632;28;20034;-83
2021/07/08 12:08:54;;;;;;;5.28;1.30;;;19.00;99.90;;;;;;4978628;28;20501;-83
2021/07/08 12:11:32;;;;;;;12.07;2.75;;;18.90;99.90;;;;;;4978559;28;20034;-83
2021/07/08 12:14:09;;;;;;;6.50;1.80;;;18.80;99.90;;;;;;4978516;28;20426;-83
2021/07/08 12:16:43;;;;;;;5.82;1.88;;;18.80;99.90;;;;;;4978451;28;20031;-83
2021/07/08 12:19:15;;;;;;;11.63;2.47;;;18.60;99.90;;;;;;4978374;28;20093;-83
2021/07/08 12:21:44;;;;;;;38.42;3.90;;;18.40;99.90;;;;;;4978311;28;20030;-82
2021/07/08 12:24:19;;;;;;;14.57;2.85;;;18.00;99.90;;;;;;4995850;28;20399;-85
2021/07/08 12:26:45;;;;;;;7.45;1.80;;;17.70;99.90;;;;;;4996138;28;20382;-85
2021/07/08 12:29:10;;;;;;;1.25;0.98;;;17.30;99.90;;;;;;4978312;28;20026;-85
2021/07/08 12:31:57;;;;;;;2.78;1.13;;;17.10;99.90;;;;;;4978100;28;20018;-85
2021/07/08 12:34:59;;;;;;;1.98;1.10;;;17.10;99.90;;;;;;4995702;28;20097;-85
2021/07/08 12:37:36;;;;;;;2.88;1.63;;;17.00;99.90;;;;;;4978094;28;20030;-86
2021/07/08 12:40:08;;;;;;;3.17;1.52;;;17.10;99.90;;;;;;4978098;28;20018;-85
2021/07/08 12:42:37;;;;;;;4.22;1.65;;;17.40;99.90;;;;;;4978009;28;20098;-86
2021/07/08 12:45:13;;;;;;;2.55;1.40;;;17.50;99.90;;;;;;4977900;28;20022;-87
2021/07/08 12:47:47;;;;;;;2.58;1.38;;;17.70;99.90;;;;;;4977867;28;20371;-86
2021/07/08 12:50:19;;;;;;;2.63;1.42;;;18.00;99.90;;;;;;4977794;28;20033;-86
2021/07/08 12:52:46;;;;;;;3.33;1.10;;;18.20;99.90;;;;;;4977735;28;20038;-86
2021/07/08 12:55:38;;;;;;;3.75;1.50;;;18.40;99.90;;;;;;4977755;28;20070;-86
2021/07/08 12:58:13;;;;;;;3.17;1.35;;;18.50;99.90;;;;;;4995123;28;20026;-86
2021/07/08 13:00:39;;;;;;;3.38;1.27;;;18.60;99.90;;;;;;4995654;28;20022;-85
2021/07/08 13:03:06;;;;;;;2.60;1.23;;;18.60;99.90;;;;;;4977831;28;20046;-85
2021/07/08 13:05:39;;;;;;;1.52;1.08;;;18.60;99.90;;;;;;4994557;28;20018;-86
2021/07/08 13:08:10;;;;;;;1.73;0.90;;;18.60;99.90;;;;;;4977593;28;20030;-86